Aviation Digital Data Service (ADDS)

Output produced by METARs form (1227 UTC 15 November 2018)
found at http://www.aviationweather.gov/metar/data/
 
MBGT 151020Z 1512/1612 08012G22KT 4800 TSRA SCT012CB BKN016 
     FM151800 13015KT 8000 SHRA SCT016 BKN030 
     BECMG 1608/1610 SCT018 BKN050
       
MBPV 151020Z 1512/1612 08012G22KT 4800 TSRA SCT012CB BKN016 
     FM151800 13015KT 8000 SHRA SCT016 BKN030 
     BECMG 1608/1610 SCT018 BKN050